createdAt,value
2018-07-16T00:01:06.133Z,19.13
2018-07-16T00:03:36.579Z,19.08
2018-07-16T00:06:07.022Z,19.18
2018-07-16T00:08:37.334Z,19.17
2018-07-16T00:11:08.048Z,19.12
2018-07-16T00:13:38.569Z,18.95
2018-07-16T00:16:08.924Z,19.08
2018-07-16T00:18:39.657Z,19.13
2018-07-16T00:21:09.992Z,19.03
2018-07-16T00:23:40.374Z,19.03
2018-07-16T00:26:10.956Z,18.97
2018-07-16T00:28:41.286Z,18.90
2018-07-16T00:31:11.960Z,18.93
2018-07-16T00:33:42.735Z,18.91
2018-07-16T00:36:12.954Z,18.93
2018-07-16T00:38:43.327Z,18.96
2018-07-16T00:41:13.928Z,19.00
2018-07-16T00:43:44.295Z,19.05
2018-07-16T00:46:14.735Z,18.97
2018-07-16T00:48:45.306Z,18.95
2018-07-16T00:51:15.689Z,18.96
2018-07-16T00:53:46.017Z,18.95
2018-07-16T00:56:16.776Z,18.93
2018-07-16T00:58:47.087Z,18.88
2018-07-16T01:01:17.405Z,18.92
2018-07-16T01:03:47.831Z,18.79
2018-07-16T01:06:18.102Z,18.59
2018-07-16T01:08:48.555Z,18.48
2018-07-16T01:11:19.279Z,18.44
2018-07-16T01:13:49.699Z,18.47
2018-07-16T01:16:20.219Z,18.50
2018-07-16T01:18:50.548Z,18.55
2018-07-16T01:21:20.793Z,18.73
2018-07-16T01:23:51.095Z,18.68
2018-07-16T01:26:21.544Z,18.68
2018-07-16T01:28:51.954Z,18.74
2018-07-16T01:31:22.268Z,18.74
2018-07-16T01:33:52.733Z,18.72
2018-07-16T01:36:23.194Z,18.58
2018-07-16T01:38:53.464Z,18.59
2018-07-16T01:41:23.869Z,18.56
2018-07-16T01:43:54.302Z,18.57
2018-07-16T01:46:24.797Z,18.51
2018-07-16T01:48:55.403Z,18.56
2018-07-16T01:51:25.957Z,18.57
2018-07-16T01:53:56.477Z,18.64
2018-07-16T01:56:26.835Z,18.65
2018-07-16T01:58:57.291Z,18.61
2018-07-16T02:01:28.116Z,18.66
2018-07-16T02:03:58.495Z,18.68
2018-07-16T02:06:29.212Z,18.64
2018-07-16T02:08:59.556Z,18.48
2018-07-16T02:11:29.903Z,18.38
2018-07-16T02:14:00.819Z,18.35
2018-07-16T02:16:31.110Z,18.29
2018-07-16T02:19:01.432Z,18.30
2018-07-16T02:21:32.467Z,18.26
2018-07-16T02:24:02.783Z,18.27
2018-07-16T02:26:33.057Z,18.25
2018-07-16T02:29:03.405Z,18.31
2018-07-16T02:31:33.632Z,18.29
2018-07-16T02:34:04.101Z,18.29
2018-07-16T02:36:34.635Z,18.16
2018-07-16T02:39:05.402Z,18.18
2018-07-16T02:41:35.702Z,18.13
2018-07-16T02:44:06.132Z,18.10
2018-07-16T02:46:36.641Z,18.14
2018-07-16T02:49:07.223Z,18.22
2018-07-16T02:51:37.546Z,18.23
2018-07-16T02:54:08.139Z,18.13
2018-07-16T02:56:38.595Z,18.05
2018-07-16T02:59:09.141Z,18.07
2018-07-16T03:01:39.491Z,18.02
2018-07-16T03:04:09.791Z,18.02
2018-07-16T03:06:40.150Z,17.97
2018-07-16T03:09:10.474Z,17.86
2018-07-16T03:11:40.903Z,17.82
2018-07-16T03:14:11.498Z,17.79
2018-07-16T03:16:41.792Z,17.76
2018-07-16T03:19:12.382Z,17.70
2018-07-16T03:21:42.650Z,17.70
2018-07-16T03:24:13.449Z,17.77
2018-07-16T03:26:43.908Z,17.79
2018-07-16T03:29:14.330Z,17.81
2018-07-16T03:31:44.687Z,17.84
2018-07-16T03:34:15.012Z,18.07
2018-07-16T03:36:45.407Z,18.23
2018-07-16T03:39:15.653Z,18.29
2018-07-16T03:41:45.934Z,18.46
2018-07-16T03:44:16.393Z,18.46
2018-07-16T03:46:46.700Z,18.63
2018-07-16T03:49:17.079Z,18.95
2018-07-16T03:51:47.542Z,19.36
2018-07-16T03:54:17.866Z,19.85
2018-07-16T03:56:48.512Z,20.39
2018-07-16T03:59:19.161Z,20.66
2018-07-16T04:01:49.467Z,21.08
2018-07-16T04:04:20.094Z,21.41
2018-07-16T04:06:50.293Z,21.76
2018-07-16T04:09:20.837Z,21.97
2018-07-16T04:11:51.216Z,22.39
2018-07-16T04:14:21.978Z,22.71
2018-07-16T04:16:52.265Z,22.93
2018-07-16T04:19:22.870Z,23.45
2018-07-16T04:21:53.363Z,23.60
2018-07-16T04:24:23.856Z,23.23
2018-07-16T04:26:54.238Z,22.91
2018-07-16T04:29:24.795Z,22.41
2018-07-16T04:31:55.444Z,21.91
2018-07-16T04:34:25.795Z,21.70
2018-07-16T04:36:56.360Z,21.55
2018-07-16T04:39:26.752Z,21.46
2018-07-16T04:41:57.177Z,21.30
2018-07-16T04:44:27.749Z,21.15
2018-07-16T04:46:58.083Z,21.22
2018-07-16T04:49:28.484Z,22.13
2018-07-16T04:51:58.692Z,22.42
2018-07-16T04:54:29.062Z,22.29
2018-07-16T04:56:59.650Z,22.23
2018-07-16T04:59:29.912Z,22.59
2018-07-16T05:02:00.324Z,22.78
2018-07-16T05:04:30.626Z,23.07
2018-07-16T05:07:00.983Z,23.32
2018-07-16T05:09:31.314Z,23.46
2018-07-16T05:12:01.555Z,23.58
2018-07-16T05:14:32.085Z,24.56
2018-07-16T05:17:02.441Z,25.66
2018-07-16T05:19:32.739Z,26.61
2018-07-16T05:22:02.994Z,27.14
2018-07-16T05:24:33.432Z,27.56
2018-07-16T05:27:03.690Z,27.53
2018-07-16T05:30:05.777Z,27.50
2018-07-16T05:32:36.207Z,27.81
2018-07-16T05:35:06.378Z,28.26
2018-07-16T05:37:36.769Z,27.87
2018-07-16T05:40:07.240Z,27.91
2018-07-16T05:42:37.819Z,28.69
2018-07-16T05:45:08.040Z,29.30
2018-07-16T05:47:41.872Z,29.37
2018-07-16T05:50:12.391Z,29.96
2018-07-16T05:52:42.780Z,29.89
2018-07-16T05:55:13.158Z,30.34
2018-07-16T05:57:43.488Z,30.20
2018-07-16T06:00:14.187Z,30.59
2018-07-16T06:02:44.342Z,30.23
2018-07-16T06:05:14.869Z,31.03
2018-07-16T06:07:45.255Z,31.37
2018-07-16T06:10:15.776Z,31.29
2018-07-16T06:12:46.149Z,31.48
2018-07-16T06:15:16.519Z,31.27
2018-07-16T06:17:46.930Z,31.49
2018-07-16T06:20:17.266Z,31.78
2018-07-16T06:22:48.345Z,31.65
2018-07-16T06:25:18.731Z,31.81
2018-07-16T06:27:49.181Z,31.52
2018-07-16T06:30:19.804Z,31.72
2018-07-16T06:32:50.166Z,32.09
2018-07-16T06:35:20.710Z,31.74
2018-07-16T06:37:51.078Z,32.31
2018-07-16T06:40:21.732Z,32.33
2018-07-16T06:42:52.140Z,32.71
2018-07-16T06:45:22.646Z,32.31
2018-07-16T06:47:53.049Z,32.37
2018-07-16T06:50:23.573Z,32.54
2018-07-16T06:52:54.043Z,32.13
2018-07-16T06:55:24.467Z,32.40
2018-07-16T06:57:55.019Z,32.69
2018-07-16T07:00:26.135Z,33.29
2018-07-16T07:02:56.438Z,34.41
2018-07-16T07:05:26.717Z,34.74
2018-07-16T07:07:57.115Z,34.31
2018-07-16T07:10:27.591Z,33.32
2018-07-16T07:12:58.102Z,33.98
2018-07-16T07:15:28.315Z,34.71
2018-07-16T07:17:58.749Z,33.89
2018-07-16T07:20:29.044Z,34.93
2018-07-16T07:22:59.399Z,34.73
2018-07-16T07:25:29.638Z,35.47
2018-07-16T07:28:00.175Z,35.41
2018-07-16T07:30:30.449Z,35.78
2018-07-16T07:33:00.894Z,35.66
2018-07-16T07:35:31.623Z,36.17
2018-07-16T07:38:01.912Z,35.64
2018-07-16T07:40:32.629Z,35.86
2018-07-16T07:43:03.037Z,35.75
2018-07-16T07:45:33.580Z,35.88
2018-07-16T07:48:04.420Z,36.62
2018-07-16T07:50:34.593Z,35.50
2018-07-16T07:53:05.073Z,34.49
2018-07-16T07:55:35.760Z,34.89
2018-07-16T07:58:06.199Z,36.59
2018-07-16T08:00:36.521Z,35.86
2018-07-16T08:03:07.031Z,35.53
2018-07-16T08:05:37.524Z,35.59
2018-07-16T08:08:07.882Z,34.78
2018-07-16T08:10:38.322Z,35.13
2018-07-16T08:13:08.731Z,36.24
2018-07-16T08:15:39.683Z,37.51
2018-07-16T08:18:10.248Z,36.77
2018-07-16T08:20:41.349Z,36.28
2018-07-16T08:23:11.995Z,36.27
2018-07-16T08:25:42.620Z,37.21
2018-07-16T08:28:13.138Z,37.28
2018-07-16T08:30:43.494Z,37.05
2018-07-16T08:33:13.956Z,36.32
2018-07-16T08:35:44.709Z,36.28
2018-07-16T08:38:15.032Z,35.75
2018-07-16T08:40:45.447Z,36.88
2018-07-16T08:43:15.775Z,37.67
2018-07-16T08:45:47.072Z,36.59
2018-07-16T08:48:17.670Z,36.18
2018-07-16T08:50:47.972Z,36.48
2018-07-16T08:53:18.328Z,36.56
2018-07-16T08:55:48.644Z,35.96
2018-07-16T08:58:18.981Z,37.26
2018-07-16T09:00:49.583Z,37.27
2018-07-16T09:03:20.015Z,36.97
2018-07-16T09:05:56.440Z,38.41
2018-07-16T09:08:26.968Z,38.35
2018-07-16T09:10:57.631Z,36.70
2018-07-16T09:13:28.189Z,36.89
2018-07-16T09:15:58.628Z,37.72
2018-07-16T09:18:28.975Z,35.58
2018-07-16T09:20:59.593Z,37.71
2018-07-16T09:23:30.069Z,37.65
2018-07-16T09:26:00.403Z,38.41
2018-07-16T09:28:30.701Z,37.73
2018-07-16T09:31:01.508Z,38.02
2018-07-16T09:33:31.845Z,37.01
2018-07-16T09:36:02.367Z,37.28
2018-07-16T09:38:32.865Z,37.23
2018-07-16T09:41:03.403Z,37.87
2018-07-16T09:43:33.870Z,37.48
2018-07-16T09:46:04.319Z,36.83
2018-07-16T09:48:34.855Z,36.66
2018-07-16T09:51:05.304Z,37.01
2018-07-16T09:53:35.778Z,35.73
2018-07-16T09:56:06.388Z,36.12
2018-07-16T09:58:36.842Z,36.85
2018-07-16T10:01:13.437Z,37.48
2018-07-16T10:03:43.778Z,37.06
2018-07-16T10:06:14.454Z,37.55
2018-07-16T10:08:45.027Z,38.41
2018-07-16T10:11:15.322Z,37.29
2018-07-16T10:13:45.933Z,36.89
2018-07-16T10:16:16.249Z,36.52
2018-07-16T10:18:46.819Z,36.99
2018-07-16T10:21:17.204Z,37.08
2018-07-16T10:23:48.931Z,36.30
2018-07-16T10:26:19.290Z,36.38
2018-07-16T10:28:49.888Z,36.67
2018-07-16T10:31:20.354Z,37.46
2018-07-16T10:33:51.137Z,37.98
2018-07-16T10:36:21.624Z,36.46
2018-07-16T10:38:51.987Z,37.07
2018-07-16T10:41:22.351Z,36.47
2018-07-16T10:43:52.729Z,36.43
2018-07-16T10:46:23.415Z,36.23
2018-07-16T10:48:53.746Z,37.25
2018-07-16T10:51:24.220Z,36.25
2018-07-16T10:53:54.551Z,36.64
2018-07-16T10:56:25.028Z,36.09
2018-07-16T10:58:55.543Z,35.43
2018-07-16T11:01:25.974Z,37.21
2018-07-16T11:03:56.644Z,36.68
2018-07-16T11:06:27.119Z,37.46
2018-07-16T11:08:57.545Z,36.31
2018-07-16T11:11:28.160Z,36.40
2018-07-16T11:13:58.739Z,36.48
2018-07-16T11:16:29.187Z,36.35
2018-07-16T11:18:59.565Z,36.29
2018-07-16T11:21:30.123Z,36.84
2018-07-16T11:24:00.530Z,36.32
2018-07-16T11:26:31.207Z,36.79
2018-07-16T11:29:01.686Z,36.64
2018-07-16T11:31:32.162Z,36.84
2018-07-16T11:34:02.636Z,36.75
2018-07-16T11:36:33.019Z,35.43
2018-07-16T11:39:03.692Z,34.70
2018-07-16T11:41:34.076Z,33.89
2018-07-16T11:44:06.431Z,32.79
2018-07-16T11:46:37.162Z,31.98
2018-07-16T11:49:07.660Z,31.59
2018-07-16T11:51:38.116Z,31.19
2018-07-16T11:54:08.649Z,31.23
2018-07-16T11:56:39.010Z,31.31
2018-07-16T11:59:09.588Z,31.30
2018-07-16T12:01:40.002Z,31.40
2018-07-16T12:04:10.858Z,31.39
2018-07-16T12:06:41.282Z,31.96
2018-07-16T12:09:11.743Z,32.23
2018-07-16T12:11:42.108Z,32.26
2018-07-16T12:14:12.614Z,31.98
2018-07-16T12:16:42.947Z,32.05
2018-07-16T12:19:13.368Z,31.66
2018-07-16T12:21:43.818Z,31.80
2018-07-16T12:24:14.278Z,31.74
2018-07-16T12:26:45.024Z,31.67
2018-07-16T12:29:15.497Z,31.85
2018-07-16T12:31:45.841Z,32.01
2018-07-16T12:34:16.435Z,31.97
2018-07-16T12:36:46.866Z,31.93
2018-07-16T12:39:17.271Z,31.80
2018-07-16T12:41:47.747Z,31.79
2018-07-16T12:44:18.362Z,31.75
2018-07-16T12:46:49.097Z,31.96
2018-07-16T12:49:19.435Z,32.04
2018-07-16T12:51:50.024Z,31.83
2018-07-16T12:54:20.439Z,31.95
2018-07-16T12:56:51.016Z,32.14
2018-07-16T12:59:21.562Z,32.34
2018-07-16T13:01:51.903Z,32.22
2018-07-16T13:04:22.323Z,32.22
2018-07-16T13:06:52.732Z,32.03
2018-07-16T13:09:24.204Z,32.04
2018-07-16T13:11:54.745Z,31.94
2018-07-16T13:14:25.120Z,32.19
2018-07-16T13:16:55.766Z,31.95
2018-07-16T13:19:26.168Z,32.03
2018-07-16T13:21:56.778Z,32.03
2018-07-16T13:24:27.346Z,31.95
2018-07-16T13:26:57.763Z,32.09
2018-07-16T13:29:28.378Z,32.24
2018-07-16T13:31:58.878Z,32.41
2018-07-16T13:34:29.240Z,32.46
2018-07-16T13:36:59.788Z,32.35
2018-07-16T13:39:30.250Z,32.52
2018-07-16T13:42:00.618Z,32.33
2018-07-16T13:44:31.056Z,32.22
2018-07-16T13:47:01.601Z,32.38
2018-07-16T13:49:32.234Z,32.64
2018-07-16T13:52:02.753Z,32.82
2018-07-16T13:54:33.071Z,32.86
2018-07-16T13:57:03.472Z,32.60
2018-07-16T13:59:33.962Z,32.57
2018-07-16T14:02:04.337Z,32.44
2018-07-16T14:04:34.691Z,32.33
2018-07-16T14:07:04.926Z,32.17
2018-07-16T14:09:35.239Z,32.27
2018-07-16T14:12:05.695Z,32.27
2018-07-16T14:14:36.077Z,32.24
2018-07-16T14:17:06.593Z,32.29
2018-07-16T14:19:37.031Z,32.12
2018-07-16T14:22:08.330Z,32.07
2018-07-16T14:24:38.750Z,32.11
2018-07-16T14:27:09.269Z,32.20
2018-07-16T14:29:39.627Z,32.08
2018-07-16T14:32:10.091Z,32.30
2018-07-16T14:34:40.419Z,32.14
2018-07-16T14:37:10.928Z,32.11
2018-07-16T14:39:41.239Z,31.95
2018-07-16T14:42:11.660Z,31.75
2018-07-16T14:44:42.085Z,31.55
2018-07-16T14:47:12.359Z,31.35
2018-07-16T14:49:42.787Z,31.15
2018-07-16T14:52:13.293Z,31.02
2018-07-16T14:54:43.903Z,31.13
2018-07-16T14:57:14.355Z,31.19
2018-07-16T14:59:45.112Z,31.12
2018-07-16T15:02:15.347Z,31.50
2018-07-16T15:04:45.965Z,31.89
2018-07-16T15:07:16.516Z,31.87
2018-07-16T15:09:46.798Z,31.50
2018-07-16T15:12:17.072Z,31.20
2018-07-16T15:14:47.415Z,30.99
2018-07-16T15:17:17.805Z,30.92
2018-07-16T15:19:48.096Z,30.98
2018-07-16T15:22:18.576Z,30.96
2018-07-16T15:24:48.964Z,30.92
2018-07-16T15:27:19.281Z,31.03
2018-07-16T15:29:49.675Z,31.26
2018-07-16T15:32:20.049Z,31.32
2018-07-16T15:34:50.399Z,31.35
2018-07-16T15:37:20.714Z,31.22
2018-07-16T15:39:50.899Z,31.34
2018-07-16T15:42:21.359Z,31.52
2018-07-16T15:44:51.934Z,31.59
2018-07-16T15:47:22.368Z,31.68
2018-07-16T15:49:52.788Z,31.66
2018-07-16T15:52:23.004Z,31.45
2018-07-16T15:54:53.288Z,31.66
2018-07-16T15:57:23.602Z,31.83
2018-07-16T15:59:54.123Z,31.89
2018-07-16T16:02:24.515Z,31.89
2018-07-16T16:04:55.487Z,31.97
2018-07-16T16:07:29.698Z,31.94
2018-07-16T16:10:00.400Z,31.98
2018-07-16T16:12:30.633Z,32.14
2018-07-16T16:15:00.936Z,32.19
2018-07-16T16:17:31.258Z,32.30
2018-07-16T16:20:01.745Z,32.40
2018-07-16T16:22:32.059Z,32.18
2018-07-16T16:25:02.673Z,32.02
2018-07-16T16:27:33.132Z,32.13
2018-07-16T16:30:03.601Z,32.01
2018-07-16T16:32:34.165Z,31.89
2018-07-16T16:35:04.668Z,31.76
2018-07-16T16:37:35.092Z,31.64
2018-07-16T16:40:05.711Z,31.49
2018-07-16T16:42:36.261Z,31.54
2018-07-16T16:45:06.756Z,31.55
2018-07-16T16:47:37.251Z,31.52
2018-07-16T16:50:07.730Z,31.51
2018-07-16T16:52:38.047Z,31.37
2018-07-16T16:55:08.244Z,31.40
2018-07-16T16:57:38.560Z,31.33
2018-07-16T17:00:08.926Z,31.35
2018-07-16T17:02:39.251Z,31.20
2018-07-16T17:05:09.611Z,31.03
2018-07-16T17:07:40.379Z,30.91
2018-07-16T17:10:10.865Z,30.84
2018-07-16T17:12:41.234Z,30.90
2018-07-16T17:15:11.892Z,30.88
2018-07-16T17:17:42.262Z,30.81
2018-07-16T17:20:12.581Z,30.82
2018-07-16T17:22:42.943Z,30.72
2018-07-16T17:25:13.435Z,30.62
2018-07-16T17:27:43.869Z,30.49
2018-07-16T17:30:14.357Z,30.25
2018-07-16T17:32:44.725Z,30.13
2018-07-16T17:35:15.284Z,30.02
2018-07-16T17:37:53.907Z,29.92
2018-07-16T17:40:24.316Z,29.74
2018-07-16T17:42:57.639Z,29.64
2018-07-16T17:45:27.917Z,29.55
2018-07-16T17:47:58.087Z,29.54
2018-07-16T17:50:28.739Z,29.34
2018-07-16T17:52:59.102Z,29.13
2018-07-16T17:55:29.407Z,28.98
2018-07-16T17:57:59.656Z,28.87
2018-07-16T18:00:29.908Z,28.82
2018-07-16T18:03:00.398Z,28.77
2018-07-16T18:05:30.718Z,28.82
2018-07-16T18:08:00.969Z,28.73
2018-07-16T18:10:31.454Z,28.60
2018-07-16T18:13:01.771Z,28.49
2018-07-16T18:15:32.320Z,28.44
2018-07-16T18:18:02.563Z,28.32
2018-07-16T18:20:33.072Z,28.15
2018-07-16T18:23:03.324Z,28.07
2018-07-16T18:25:33.871Z,27.97
2018-07-16T18:28:04.472Z,27.91
2018-07-16T18:30:34.812Z,27.59
2018-07-16T18:33:05.185Z,27.37
2018-07-16T18:35:35.497Z,27.24
2018-07-16T18:38:05.831Z,27.25
2018-07-16T18:40:36.250Z,27.23
2018-07-16T18:43:06.710Z,27.18
2018-07-16T18:45:37.090Z,27.13
2018-07-16T18:48:07.512Z,27.12
2018-07-16T18:50:38.003Z,27.01
2018-07-16T18:53:08.321Z,27.18
2018-07-16T18:55:38.664Z,27.08
2018-07-16T18:58:09.009Z,27.09
2018-07-16T19:00:39.397Z,27.11
2018-07-16T19:03:09.815Z,27.05
2018-07-16T19:05:40.270Z,26.97
2018-07-16T19:08:10.958Z,26.91
2018-07-16T19:10:41.251Z,26.80
2018-07-16T19:13:11.601Z,26.85
2018-07-16T19:15:42.397Z,26.87
2018-07-16T19:18:12.773Z,26.69
2018-07-16T19:20:43.363Z,26.61
2018-07-16T19:23:13.859Z,26.49
2018-07-16T19:25:44.130Z,26.46
2018-07-16T19:28:14.536Z,26.40
2018-07-16T19:30:45.009Z,26.32
2018-07-16T19:33:15.225Z,26.37
2018-07-16T19:35:45.570Z,26.34
2018-07-16T19:38:16.007Z,26.33
2018-07-16T19:40:46.224Z,26.50
2018-07-16T19:43:16.764Z,26.37
2018-07-16T19:45:47.065Z,26.26
2018-07-16T19:48:17.412Z,26.23
2018-07-16T19:50:47.707Z,26.23
2018-07-16T19:53:18.249Z,26.21
2018-07-16T19:55:48.732Z,26.14
2018-07-16T19:58:19.372Z,26.09
2018-07-16T20:00:49.786Z,26.03
2018-07-16T20:03:20.040Z,26.01
2018-07-16T20:05:50.610Z,25.93
2018-07-16T20:08:20.967Z,25.83
2018-07-16T20:10:51.313Z,25.88
2018-07-16T20:13:21.581Z,25.83
2018-07-16T20:15:52.056Z,25.78
2018-07-16T20:18:22.431Z,25.82
2018-07-16T20:20:55.947Z,25.75
2018-07-16T20:23:26.413Z,25.62
2018-07-16T20:25:57.913Z,25.63
2018-07-16T20:28:28.403Z,25.64
2018-07-16T20:30:59.047Z,25.58
2018-07-16T20:33:29.340Z,25.51
2018-07-16T20:35:59.802Z,25.59
2018-07-16T20:38:30.106Z,25.49
2018-07-16T20:41:01.426Z,25.41
2018-07-16T20:43:31.698Z,25.31
2018-07-16T20:46:02.169Z,25.28
2018-07-16T20:48:32.712Z,25.21
2018-07-16T20:51:03.042Z,25.20
2018-07-16T20:53:33.384Z,25.07
2018-07-16T20:56:03.994Z,25.07
2018-07-16T20:58:34.587Z,24.95
2018-07-16T21:01:05.093Z,24.91
2018-07-16T21:03:35.373Z,24.84
2018-07-16T21:06:05.594Z,24.87
2018-07-16T21:08:36.062Z,24.87
2018-07-16T21:11:06.292Z,24.94
2018-07-16T21:13:36.665Z,25.08
2018-07-16T21:16:07.347Z,24.99
2018-07-16T21:18:37.615Z,25.00
2018-07-16T21:21:08.040Z,25.05
2018-07-16T21:23:38.525Z,25.00
2018-07-16T21:26:09.132Z,25.17
2018-07-16T21:28:39.410Z,25.08
2018-07-16T21:31:09.774Z,25.05
2018-07-16T21:33:40.168Z,24.98
2018-07-16T21:36:10.518Z,25.01
2018-07-16T21:38:44.859Z,24.95
2018-07-16T21:41:15.540Z,23.09
2018-07-16T21:43:45.906Z,25.02
2018-07-16T21:46:16.596Z,24.90
2018-07-16T21:48:46.853Z,24.90
2018-07-16T21:51:17.169Z,24.76
2018-07-16T21:53:47.495Z,24.84
2018-07-16T21:56:17.973Z,24.83
2018-07-16T21:58:48.339Z,24.83
2018-07-16T22:01:19.003Z,24.80
2018-07-16T22:03:49.498Z,24.78
2018-07-16T22:06:19.838Z,24.88
2018-07-16T22:08:50.167Z,24.92
2018-07-16T22:11:20.683Z,24.80
2018-07-16T22:13:51.768Z,24.79
2018-07-16T22:16:22.232Z,24.76
2018-07-16T22:18:52.438Z,24.80
2018-07-16T22:21:22.684Z,24.93
2018-07-16T22:23:52.928Z,24.89
2018-07-16T22:26:23.407Z,24.82
2018-07-16T22:28:53.865Z,24.74
2018-07-16T22:31:24.184Z,24.69
2018-07-16T22:33:54.607Z,24.69
2018-07-16T22:36:24.800Z,24.77
2018-07-16T22:38:55.155Z,24.65
2018-07-16T22:41:25.456Z,24.60
2018-07-16T22:43:55.770Z,24.52
2018-07-16T22:46:26.372Z,24.53
2018-07-16T22:48:56.715Z,24.01
2018-07-16T22:51:26.918Z,24.42
2018-07-16T22:53:57.375Z,24.35
2018-07-16T22:56:27.835Z,24.28
2018-07-16T22:58:58.364Z,24.32
2018-07-16T23:01:28.754Z,24.26
2018-07-16T23:03:59.345Z,24.33
2018-07-16T23:06:29.641Z,24.27
2018-07-16T23:09:00.084Z,24.08
2018-07-16T23:11:30.597Z,24.11
2018-07-16T23:14:01.177Z,24.07
2018-07-16T23:16:31.507Z,24.14
2018-07-16T23:19:02.043Z,24.15
2018-07-16T23:21:32.599Z,24.07
2018-07-16T23:24:03.023Z,24.04
2018-07-16T23:26:33.518Z,24.01
2018-07-16T23:29:04.121Z,24.07
2018-07-16T23:31:34.683Z,24.06
2018-07-16T23:34:04.963Z,24.06
2018-07-16T23:36:35.427Z,23.92
2018-07-16T23:39:07.087Z,23.97
2018-07-16T23:41:37.407Z,23.97
2018-07-16T23:44:08.028Z,23.93
2018-07-16T23:46:38.376Z,23.87
2018-07-16T23:49:09.090Z,23.70
2018-07-16T23:51:39.463Z,23.56
2018-07-16T23:54:09.950Z,23.50
2018-07-16T23:56:40.501Z,23.49
2018-07-16T23:59:10.828Z,23.38
